Time;durP1;ratioP1;P1;durP2;ratioP2;P2;SDS_P1;SDS_P2;PMS_P1;PMS_P2;Temp;Humidity;BMP_temperature;BMP_pressure;BME280_temperature;BME280_humidity;BME280_pressure;Samples;Min_cycle;Max_cycle;Signal;HPM_P1;HPM_P2
2022/03/28 00:02:12;;;;;;;;;30.75;27.50;;;;;;;;5018786;28;11855;-73
2022/03/28 00:04:39;;;;;;;;;47.50;39.50;;;;;;;;5021402;28;11500;-73
2022/03/28 00:07:06;;;;;;;;;45.00;40.75;;;;;;;;5016955;28;11583;-74
2022/03/28 00:09:34;;;;;;;;;46.25;40.00;;;;;;;;5018051;28;11589;-74
2022/03/28 00:12:01;;;;;;;;;45.75;39.00;;;;;;;;5018003;28;11549;-74
2022/03/28 00:14:28;;;;;;;;;50.00;43.50;;;;;;;;5022639;28;11562;-74
2022/03/28 00:16:57;;;;;;;;;41.25;30.00;;;;;;;;5016472;28;11752;-73
2022/03/28 00:19:25;;;;;;;;;44.00;39.25;;;;;;;;5000318;28;11722;-73
2022/03/28 00:21:52;;;;;;;;;46.50;41.50;;;;;;;;5018994;28;11618;-73
2022/03/28 00:24:19;;;;;;;;;49.00;38.00;;;;;;;;5019772;28;11549;-74
2022/03/28 00:26:47;;;;;;;;;39.25;27.50;;;;;;;;5022419;28;11517;-74
2022/03/28 00:29:14;;;;;;;;;42.50;38.50;;;;;;;;5006884;28;12413;-75
2022/03/28 00:31:41;;;;;;;;;33.00;30.25;;;;;;;;5022268;28;11501;-74
2022/03/28 00:34:10;;;;;;;;;46.50;39.25;;;;;;;;5025583;28;11702;-74
2022/03/28 00:36:37;;;;;;;;;36.00;30.00;;;;;;;;5023012;28;11717;-73
2022/03/28 00:39:05;;;;;;;;;39.50;35.50;;;;;;;;5021899;28;11499;-74
2022/03/28 00:41:32;;;;;;;;;36.00;32.50;;;;;;;;5021898;28;11525;-74
2022/03/28 00:44:00;;;;;;;;;39.25;35.00;;;;;;;;5004610;28;11521;-74
2022/03/28 00:46:28;;;;;;;;;54.50;39.25;;;;;;;;5021617;28;11551;-74
2022/03/28 00:48:55;;;;;;;;;46.00;41.25;;;;;;;;5023413;28;11527;-74
2022/03/28 00:51:24;;;;;;;;;46.50;39.00;;;;;;;;5023127;28;11634;-74
2022/03/28 00:53:52;;;;;;;;;41.25;36.75;;;;;;;;5024549;28;11533;-74
2022/03/28 00:56:20;;;;;;;;;43.00;38.25;;;;;;;;5023598;28;11528;-74
2022/03/28 00:58:48;;;;;;;;;47.75;40.00;;;;;;;;5022859;28;13893;-74
2022/03/28 01:01:16;;;;;;;;;37.75;35.25;;;;;;;;5020431;28;12366;-74
2022/03/28 01:03:43;;;;;;;;;39.75;36.75;;;;;;;;5021878;28;11644;-74
2022/03/28 01:06:11;;;;;;;;;48.75;41.00;;;;;;;;5025055;28;11542;-72
2022/03/28 01:08:40;;;;;;;;;50.25;41.00;;;;;;;;5022360;28;11537;-73
2022/03/28 01:11:09;;;;;;;;;45.00;37.50;;;;;;;;5023906;28;11617;-73
2022/03/28 01:13:38;;;;;;;;;43.75;39.00;;;;;;;;5022296;28;11570;-74
2022/03/28 01:16:06;;;;;;;;;36.25;35.75;;;;;;;;5021757;28;11668;-74
2022/03/28 01:18:33;;;;;;;;;40.50;37.50;;;;;;;;5023266;28;11516;-74
2022/03/28 01:21:02;;;;;;;;;48.50;42.25;;;;;;;;5022906;28;11512;-73
2022/03/28 01:23:30;;;;;;;;;42.00;36.50;;;;;;;;5023863;28;11544;-74
2022/03/28 01:25:58;;;;;;;;;37.50;36.00;;;;;;;;5022393;28;11622;-74
2022/03/28 01:28:26;;;;;;;;;45.00;39.50;;;;;;;;5022585;28;11522;-74
2022/03/28 01:30:54;;;;;;;;;38.50;34.25;;;;;;;;5015555;28;11407;-74
2022/03/28 01:33:22;;;;;;;;;35.75;31.50;;;;;;;;5024040;28;11637;-74
2022/03/28 01:35:49;;;;;;;;;36.50;34.75;;;;;;;;5022556;28;11513;-74
2022/03/28 01:38:19;;;;;;;;;38.75;32.25;;;;;;;;5003249;28;11650;-73
2022/03/28 01:40:48;;;;;;;;;43.50;35.25;;;;;;;;5022387;28;11551;-75
2022/03/28 01:43:16;;;;;;;;;53.25;44.50;;;;;;;;5022304;28;11545;-74
2022/03/28 01:45:43;;;;;;;;;28.50;27.25;;;;;;;;5022362;28;11526;-74
2022/03/28 01:48:11;;;;;;;;;46.00;38.25;;;;;;;;5024864;28;11528;-74
2022/03/28 01:50:39;;;;;;;;;46.25;41.75;;;;;;;;5024889;28;11691;-73
2022/03/28 01:53:07;;;;;;;;;38.25;38.00;;;;;;;;5018775;28;11566;-74
2022/03/28 01:55:36;;;;;;;;;45.50;39.25;;;;;;;;5021605;28;11623;-73
2022/03/28 01:58:03;;;;;;;;;58.75;42.00;;;;;;;;5024269;28;11531;-73
2022/03/28 02:00:32;;;;;;;;;39.75;37.00;;;;;;;;5022337;28;11475;-74
2022/03/28 02:03:00;;;;;;;;;39.00;33.25;;;;;;;;5023399;28;11530;-74
2022/03/28 02:05:27;;;;;;;;;45.00;37.25;;;;;;;;5021859;28;11620;-74
2022/03/28 02:07:55;;;;;;;;;37.25;31.50;;;;;;;;5004570;28;11552;-74
2022/03/28 02:10:23;;;;;;;;;40.00;34.00;;;;;;;;5019984;28;11617;-75
2022/03/28 02:12:53;;;;;;;;;42.75;38.75;;;;;;;;5020698;28;11567;-74
2022/03/28 02:15:21;;;;;;;;;48.50;38.50;;;;;;;;5023346;28;11555;-74
2022/03/28 02:17:48;;;;;;;;;33.75;32.00;;;;;;;;5020825;28;11640;-74
2022/03/28 02:20:17;;;;;;;;;43.50;39.00;;;;;;;;5023226;28;12397;-73
2022/03/28 02:22:46;;;;;;;;;41.50;38.00;;;;;;;;5025082;28;11543;-73
2022/03/28 02:25:15;;;;;;;;;49.75;38.50;;;;;;;;5021907;28;11518;-74
2022/03/28 02:27:43;;;;;;;;;47.50;41.75;;;;;;;;5018808;28;11674;-75
2022/03/28 02:30:14;;;;;;;;;38.50;30.75;;;;;;;;5006911;28;11661;-76
2022/03/28 02:32:42;;;;;;;;;47.00;41.25;;;;;;;;4950404;28;11654;-73
2022/03/28 02:35:11;;;;;;;;;47.75;41.00;;;;;;;;4977442;28;11625;-73
2022/03/28 02:37:38;;;;;;;;;41.25;35.25;;;;;;;;4984651;28;11660;-74
2022/03/28 02:40:08;;;;;;;;;37.75;37.25;;;;;;;;4950366;28;11645;-74
2022/03/28 02:42:35;;;;;;;;;42.25;38.50;;;;;;;;4968192;28;11652;-74
2022/03/28 02:45:03;;;;;;;;;45.25;39.25;;;;;;;;4966878;28;12459;-73
2022/03/28 02:47:32;;;;;;;;;43.25;34.00;;;;;;;;4999363;28;11746;-74
2022/03/28 02:49:59;;;;;;;;;45.50;39.50;;;;;;;;4938849;28;12455;-74
2022/03/28 02:52:27;;;;;;;;;38.00;35.75;;;;;;;;4981982;28;11671;-74
2022/03/28 02:54:54;;;;;;;;;37.75;35.75;;;;;;;;4954440;28;11641;-74
2022/03/28 02:57:22;;;;;;;;;33.75;31.50;;;;;;;;4970626;28;11666;-74
2022/03/28 02:59:49;;;;;;;;;40.00;31.25;;;;;;;;4966671;28;11649;-74
2022/03/28 03:02:16;;;;;;;;;44.25;32.75;;;;;;;;4938982;28;11569;-74
2022/03/28 03:04:45;;;;;;;;;43.25;38.50;;;;;;;;4939165;28;11675;-74
2022/03/28 03:07:12;;;;;;;;;33.25;28.50;;;;;;;;4969621;28;11620;-73
2022/03/28 03:09:39;;;;;;;;;44.25;38.25;;;;;;;;4976912;28;11725;-73
2022/03/28 03:12:11;;;;;;;;;40.00;33.67;;;;;;;;4976424;28;11698;-74
2022/03/28 03:14:38;;;;;;;;;50.00;41.50;;;;;;;;4975537;28;11788;-74
2022/03/28 03:17:06;;;;;;;;;54.00;40.67;;;;;;;;4976106;28;11670;-74
2022/03/28 03:19:34;;;;;;;;;54.67;45.00;;;;;;;;4937516;28;11660;-74
2022/03/28 03:22:03;;;;;;;;;47.75;36.75;;;;;;;;4965241;28;8883;-74
2022/03/28 03:24:31;;;;;;;;;47.33;38.33;;;;;;;;4965097;28;11623;-74
2022/03/28 03:26:59;;;;;;;;;50.33;41.00;;;;;;;;4932791;28;11762;-74
2022/03/28 03:29:26;;;;;;;;;52.00;40.00;;;;;;;;4975908;28;11677;-74
2022/03/28 03:31:53;;;;;;;;;52.00;45.00;;;;;;;;5011500;28;11519;-74
2022/03/28 03:34:21;;;;;;;;;44.33;39.33;;;;;;;;5021566;28;11547;-73
2022/03/28 03:36:48;;;;;;;;;49.00;42.33;;;;;;;;5015683;28;11549;-74
2022/03/28 03:39:17;;;;;;;;;45.67;40.67;;;;;;;;5019367;28;8884;-74
2022/03/28 03:41:44;;;;;;;;;54.33;44.67;;;;;;;;5020337;28;11684;-74
2022/03/28 03:44:11;;;;;;;;;45.67;42.00;;;;;;;;5005137;28;12426;-75
2022/03/28 03:46:39;;;;;;;;;58.00;42.00;;;;;;;;5020177;28;11543;-75
2022/03/28 03:49:08;;;;;;;;;49.00;36.00;;;;;;;;5017683;28;8928;-74
2022/03/28 03:51:35;;;;;;;;;57.67;46.33;;;;;;;;5020074;28;11558;-74
2022/03/28 03:54:03;;;;;;;;;52.00;46.00;;;;;;;;5017573;28;11522;-75
2022/03/28 03:56:32;;;;;;;;;55.00;40.33;;;;;;;;5019357;28;11528;-73
2022/03/28 03:58:59;;;;;;;;;46.33;43.00;;;;;;;;5000088;28;11678;-74
2022/03/28 04:01:27;;;;;;;;;44.00;38.67;;;;;;;;5018489;28;11491;-74
2022/03/28 04:03:54;;;;;;;;;58.00;45.00;;;;;;;;5020215;28;11628;-75
2022/03/28 04:06:22;;;;;;;;;51.33;45.67;;;;;;;;5016889;28;11685;-74
2022/03/28 04:08:49;;;;;;;;;57.33;45.67;;;;;;;;5018647;28;8890;-75
2022/03/28 04:11:17;;;;;;;;;52.00;42.33;;;;;;;;5019558;28;11566;-75
2022/03/28 04:13:46;;;;;;;;;50.33;40.33;;;;;;;;5024211;28;11536;-74
2022/03/28 04:16:13;;;;;;;;;60.33;49.00;;;;;;;;5019668;28;8875;-76
2022/03/28 04:18:41;;;;;;;;;69.00;50.67;;;;;;;;5017797;28;11748;-77
2022/03/28 04:21:11;;;;;;;;;64.00;50.33;;;;;;;;5001213;28;8888;-77
2022/03/28 04:23:38;;;;;;;;;61.67;51.00;;;;;;;;5028563;28;9648;-75
2022/03/28 04:26:05;;;;;;;;;56.67;46.00;;;;;;;;5019324;28;8928;-77
2022/03/28 04:28:33;;;;;;;;;49.00;39.67;;;;;;;;4999817;28;8947;-74
2022/03/28 04:31:02;;;;;;;;;52.33;44.67;;;;;;;;5016348;28;11722;-77
2022/03/28 04:33:29;;;;;;;;;53.00;43.67;;;;;;;;5019842;28;8889;-78
2022/03/28 04:35:57;;;;;;;;;50.33;42.33;;;;;;;;5015900;28;11517;-78
2022/03/28 04:38:25;;;;;;;;;53.33;42.33;;;;;;;;5018842;28;8842;-77
2022/03/28 04:40:52;;;;;;;;;38.67;35.67;;;;;;;;5016780;28;11517;-77
2022/03/28 04:43:20;;;;;;;;;59.33;46.00;;;;;;;;5017659;28;12276;-75
2022/03/28 04:45:47;;;;;;;;;56.67;44.33;;;;;;;;5018212;28;11524;-75
2022/03/28 04:48:16;;;;;;;;;58.33;45.33;;;;;;;;5018836;28;11554;-76
2022/03/28 04:50:44;;;;;;;;;54.67;44.00;;;;;;;;5018775;28;11668;-75
2022/03/28 04:53:11;;;;;;;;;59.67;48.33;;;;;;;;5016922;28;11652;-76
2022/03/28 04:55:40;;;;;;;;;59.67;47.67;;;;;;;;5017155;28;11531;-76
2022/03/28 04:58:13;;;;;;;;;52.33;44.67;;;;;;;;5014999;28;9627;-75
2022/03/28 05:00:41;;;;;;;;;53.00;43.67;;;;;;;;5012642;28;8944;-75
2022/03/28 05:03:08;;;;;;;;;45.33;40.33;;;;;;;;5017191;28;11552;-75
2022/03/28 05:05:37;;;;;;;;;39.67;34.00;;;;;;;;5015575;28;11549;-75
2022/03/28 05:08:05;;;;;;;;;47.33;41.33;;;;;;;;5014653;28;11659;-75
2022/03/28 05:10:32;;;;;;;;;50.67;43.00;;;;;;;;5014633;28;11531;-75
2022/03/28 05:13:00;;;;;;;;;58.33;43.00;;;;;;;;5017497;28;11527;-74
2022/03/28 05:15:27;;;;;;;;;53.33;45.33;;;;;;;;5017688;28;9273;-74
2022/03/28 05:17:54;;;;;;;;;41.67;35.00;;;;;;;;5008032;28;11651;-75
2022/03/28 05:20:22;;;;;;;;;42.33;39.67;;;;;;;;5019731;28;11567;-75
2022/03/28 05:22:51;;;;;;;;;57.00;44.00;;;;;;;;5019670;28;11562;-76
2022/03/28 05:25:18;;;;;;;;;45.00;38.33;;;;;;;;5022046;28;11540;-76
2022/03/28 05:27:46;;;;;;;;;43.50;33.75;;;;;;;;5021895;28;11524;-78
2022/03/28 05:30:14;;;;;;;;;45.50;40.00;;;;;;;;5018154;28;11505;-75
2022/03/28 05:32:42;;;;;;;;;44.33;39.00;;;;;;;;5002058;28;11531;-75
2022/03/28 05:35:10;;;;;;;;;39.25;37.00;;;;;;;;5020540;28;11539;-75
2022/03/28 05:37:37;;;;;;;;;50.33;41.67;;;;;;;;5020175;28;11551;-75
2022/03/28 05:40:09;;;;;;;;;35.50;32.25;;;;;;;;5023122;28;11571;-76
2022/03/28 05:42:37;;;;;;;;;42.67;39.00;;;;;;;;5023360;28;11667;-77
2022/03/28 05:45:05;;;;;;;;;36.75;34.75;;;;;;;;5022733;28;11750;-76
2022/03/28 05:47:32;;;;;;;;;43.50;37.75;;;;;;;;5023965;28;11540;-74
2022/03/28 05:49:59;;;;;;;;;42.25;32.25;;;;;;;;5023092;28;11687;-74
2022/03/28 05:52:26;;;;;;;;;36.25;32.25;;;;;;;;5018828;28;11546;-74
2022/03/28 05:54:54;;;;;;;;;39.00;34.75;;;;;;;;5023520;28;11550;-74
2022/03/28 05:57:22;;;;;;;;;34.50;33.50;;;;;;;;5025300;28;11513;-74
2022/03/28 05:59:51;;;;;;;;;48.00;42.25;;;;;;;;5023939;28;11597;-75
2022/03/28 06:02:18;;;;;;;;;45.50;39.00;;;;;;;;5024154;28;11500;-75
2022/03/28 06:04:47;;;;;;;;;38.50;35.25;;;;;;;;5023606;28;11561;-76
2022/03/28 06:07:14;;;;;;;;;49.00;39.00;;;;;;;;5024450;28;11527;-73
2022/03/28 06:09:42;;;;;;;;;39.75;36.00;;;;;;;;5002758;28;11547;-74
2022/03/28 06:12:11;;;;;;;;;40.50;38.00;;;;;;;;5006408;28;11533;-75
2022/03/28 06:14:39;;;;;;;;;45.50;38.50;;;;;;;;5006945;28;11661;-74
2022/03/28 06:17:08;;;;;;;;;41.50;38.50;;;;;;;;5022705;28;11543;-74
2022/03/28 06:19:35;;;;;;;;;34.00;26.25;;;;;;;;5024892;28;11656;-75
2022/03/28 06:22:02;;;;;;;;;46.50;39.75;;;;;;;;5023531;28;11516;-74
2022/03/28 06:24:30;;;;;;;;;35.50;34.50;;;;;;;;5004812;28;11525;-75
2022/03/28 06:26:57;;;;;;;;;44.75;32.75;;;;;;;;5006771;28;11528;-75
2022/03/28 06:29:24;;;;;;;;;35.25;30.75;;;;;;;;5021685;28;11590;-74
2022/03/28 06:31:53;;;;;;;;;40.50;35.00;;;;;;;;5023574;28;11491;-75
2022/03/28 06:34:21;;;;;;;;;50.25;39.00;;;;;;;;5022885;28;11525;-75
2022/03/28 06:36:48;;;;;;;;;34.50;32.75;;;;;;;;5023997;28;11616;-75
2022/03/28 06:39:16;;;;;;;;;40.00;34.25;;;;;;;;5023062;28;11541;-75
2022/03/28 06:41:43;;;;;;;;;36.75;35.50;;;;;;;;5006107;28;11538;-75
2022/03/28 06:44:12;;;;;;;;;44.75;39.00;;;;;;;;5023367;28;11560;-74
2022/03/28 06:46:40;;;;;;;;;38.50;34.25;;;;;;;;5023918;28;11557;-74
2022/03/28 06:49:09;;;;;;;;;23.75;23.75;;;;;;;;5024512;28;12149;-74
2022/03/28 06:51:37;;;;;;;;;38.25;33.00;;;;;;;;5023078;28;11548;-75
2022/03/28 06:54:05;;;;;;;;;39.00;37.25;;;;;;;;5023838;28;11535;-75
2022/03/28 06:56:34;;;;;;;;;43.75;35.00;;;;;;;;5022914;28;11566;-75
2022/03/28 06:59:01;;;;;;;;;46.00;40.25;;;;;;;;5023490;28;11648;-75
2022/03/28 07:01:28;;;;;;;;;43.00;38.75;;;;;;;;5021696;28;11683;-74
2022/03/28 07:03:56;;;;;;;;;44.75;39.50;;;;;;;;5023936;28;11571;-75
2022/03/28 07:06:25;;;;;;;;;37.75;29.25;;;;;;;;5019604;28;11535;-81
2022/03/28 07:08:53;;;;;;;;;40.75;37.50;;;;;;;;5020102;28;11537;-82
2022/03/28 07:11:20;;;;;;;;;45.75;40.00;;;;;;;;5022963;28;11517;-82
2022/03/28 07:13:48;;;;;;;;;45.50;39.00;;;;;;;;5014968;28;11573;-83
2022/03/28 07:16:18;;;;;;;;;46.25;41.00;;;;;;;;5020328;28;11525;-79
2022/03/28 07:18:46;;;;;;;;;42.00;38.25;;;;;;;;5030535;28;11516;-83
2022/03/28 07:21:13;;;;;;;;;32.00;29.00;;;;;;;;5017348;28;11561;-84
2022/03/28 07:23:43;;;;;;;;;31.50;31.00;;;;;;;;5033288;28;11555;-82
2022/03/28 07:26:13;;;;;;;;;38.50;33.00;;;;;;;;5029005;28;11547;-84
2022/03/28 07:28:48;;;;;;;;;37.50;32.75;;;;;;;;5031668;28;11531;-82
2022/03/28 07:31:17;;;;;;;;;38.00;37.00;;;;;;;;5033356;28;11600;-81
2022/03/28 07:33:46;;;;;;;;;56.75;41.00;;;;;;;;5018882;28;12183;-80
2022/03/28 07:36:15;;;;;;;;;47.00;36.75;;;;;;;;5015187;28;11551;-82
2022/03/28 07:38:44;;;;;;;;;55.25;42.75;;;;;;;;5030106;28;12405;-79
2022/03/28 07:41:12;;;;;;;;;46.25;41.75;;;;;;;;5032083;28;11546;-81
2022/03/28 07:43:39;;;;;;;;;59.25;45.25;;;;;;;;5029625;28;11589;-81
2022/03/28 07:46:08;;;;;;;;;60.50;41.50;;;;;;;;5035068;28;11518;-83
2022/03/28 07:48:36;;;;;;;;;45.25;40.75;;;;;;;;5029759;28;11541;-82
2022/03/28 07:51:04;;;;;;;;;56.75;43.75;;;;;;;;5025002;28;11538;-82
2022/03/28 07:53:32;;;;;;;;;51.50;44.00;;;;;;;;5012726;28;11566;-82
2022/03/28 07:56:01;;;;;;;;;55.25;40.00;;;;;;;;5013090;28;11555;-82
2022/03/28 07:58:29;;;;;;;;;49.00;39.75;;;;;;;;5028610;28;11624;-80
2022/03/28 08:00:56;;;;;;;;;47.75;37.00;;;;;;;;5022746;28;11555;-82
2022/03/28 08:03:24;;;;;;;;;52.75;43.50;;;;;;;;5034189;28;11513;-82
2022/03/28 08:05:53;;;;;;;;;42.50;37.75;;;;;;;;5029952;28;11542;-81
2022/03/28 08:08:21;;;;;;;;;43.00;39.50;;;;;;;;5020558;28;11650;-82
2022/03/28 08:10:48;;;;;;;;;53.50;43.75;;;;;;;;5009884;28;11553;-80
2022/03/28 08:13:17;;;;;;;;;51.00;42.25;;;;;;;;5025949;28;11501;-81
2022/03/28 08:15:45;;;;;;;;;50.00;42.75;;;;;;;;5024718;28;11581;-81
2022/03/28 08:18:12;;;;;;;;;48.75;43.25;;;;;;;;5028009;28;11715;-83
2022/03/28 08:20:40;;;;;;;;;54.25;43.50;;;;;;;;5005655;28;11544;-81
2022/03/28 08:23:08;;;;;;;;;50.00;43.50;;;;;;;;5030950;28;11522;-81
2022/03/28 08:25:35;;;;;;;;;51.25;40.25;;;;;;;;5027085;28;11524;-81
2022/03/28 08:28:03;;;;;;;;;50.50;42.75;;;;;;;;5028344;28;11573;-81
2022/03/28 08:30:34;;;;;;;;;54.25;39.00;;;;;;;;5025559;28;11446;-81
2022/03/28 08:33:02;;;;;;;;;49.75;40.50;;;;;;;;5025015;28;11486;-81
2022/03/28 08:35:29;;;;;;;;;44.00;39.00;;;;;;;;5023781;28;11461;-80
2022/03/28 08:37:57;;;;;;;;;49.50;41.25;;;;;;;;5025700;28;11462;-81
2022/03/28 08:40:26;;;;;;;;;36.50;34.25;;;;;;;;5018581;28;12265;-82
2022/03/28 08:42:54;;;;;;;;;46.50;40.25;;;;;;;;5020362;28;11494;-82
2022/03/28 08:45:21;;;;;;;;;45.50;40.75;;;;;;;;5021034;28;12563;-82
2022/03/28 08:47:51;;;;;;;;;43.75;37.50;;;;;;;;5023714;28;11462;-82
2022/03/28 08:50:19;;;;;;;;;42.50;38.25;;;;;;;;5025892;28;11520;-84
2022/03/28 08:52:47;;;;;;;;;53.50;42.25;;;;;;;;5026977;28;11264;-83
2022/03/28 08:55:17;;;;;;;;;50.75;42.00;;;;;;;;5025584;28;11475;-83
2022/03/28 08:57:44;;;;;;;;;45.75;37.25;;;;;;;;5025531;28;11363;-83
2022/03/28 09:00:12;;;;;;;;;49.75;39.25;;;;;;;;5025719;28;11196;-83
2022/03/28 09:02:42;;;;;;;;;52.00;41.50;;;;;;;;5024105;28;11059;-79
2022/03/28 09:05:12;;;;;;;;;44.00;37.00;;;;;;;;5015285;28;11088;-77
2022/03/28 09:07:39;;;;;;;;;50.25;43.00;;;;;;;;5024525;28;11034;-78
2022/03/28 09:10:08;;;;;;;;;44.00;38.25;;;;;;;;5023243;28;10953;-81
2022/03/28 09:12:41;;;;;;;;;49.00;43.25;;;;;;;;5022776;28;10912;-82
2022/03/28 09:15:13;;;;;;;;;52.00;43.75;;;;;;;;5021484;28;10617;-81
2022/03/28 09:17:41;;;;;;;;;47.25;39.00;;;;;;;;5025914;28;10714;-82
2022/03/28 09:20:11;;;;;;;;;46.50;38.00;;;;;;;;5023915;28;10592;-80
2022/03/28 09:22:41;;;;;;;;;51.50;42.75;;;;;;;;5026223;28;10660;-79
2022/03/28 09:25:10;;;;;;;;;44.50;36.50;;;;;;;;5023728;28;10205;-80
2022/03/28 09:27:40;;;;;;;;;44.50;37.50;;;;;;;;5025427;28;11329;-80
2022/03/28 09:30:10;;;;;;;;;45.50;38.00;;;;;;;;5023032;28;10030;-80
2022/03/28 09:32:39;;;;;;;;;53.50;41.50;;;;;;;;5020385;28;10129;-81
2022/03/28 09:35:10;;;;;;;;;49.50;41.50;;;;;;;;5025613;28;9926;-83
2022/03/28 09:38:05;;;;;;;;;51.00;41.00;;;;;;;;5019862;28;10096;-83
2022/03/28 09:40:36;;;;;;;;;51.50;40.50;;;;;;;;4989389;28;9805;-83
2022/03/28 09:43:05;;;;;;;;;47.25;39.50;;;;;;;;5023122;28;9838;-83
2022/03/28 09:45:35;;;;;;;;;56.50;46.25;;;;;;;;5023208;28;9692;-84
2022/03/28 09:48:05;;;;;;;;;51.33;39.67;;;;;;;;5024827;28;9637;-83
2022/03/28 09:50:37;;;;;;;;;54.50;44.00;;;;;;;;5024871;28;9574;-83
2022/03/28 09:53:12;;;;;;;;;51.67;41.33;;;;;;;;5026464;28;9640;-83
2022/03/28 09:55:54;;;;;;;;;51.33;42.00;;;;;;;;5024712;28;9488;-84
2022/03/28 09:58:39;;;;;;;;;54.00;43.00;;;;;;;;5015188;28;10169;-84
2022/03/28 10:01:08;;;;;;;;;43.67;38.00;;;;;;;;5022861;28;9317;-85
2022/03/28 10:03:37;;;;;;;;;54.33;43.33;;;;;;;;5024180;28;9028;-83
2022/03/28 10:06:09;;;;;;;;;54.00;42.33;;;;;;;;5019148;28;9259;-81
2022/03/28 10:08:37;;;;;;;;;46.33;37.33;;;;;;;;5023677;28;9240;-81
2022/03/28 10:11:06;;;;;;;;;54.00;43.00;;;;;;;;5024267;28;9058;-81
2022/03/28 10:13:33;;;;;;;;;48.67;40.67;;;;;;;;5024531;28;9044;-81
2022/03/28 10:16:02;;;;;;;;;51.25;42.25;;;;;;;;5020474;28;8952;-79
2022/03/28 10:18:33;;;;;;;;;52.50;41.00;;;;;;;;5027752;28;8935;-80
2022/03/28 10:21:02;;;;;;;;;50.50;42.00;;;;;;;;5021711;28;8854;-81
2022/03/28 10:23:37;;;;;;;;;50.75;42.75;;;;;;;;5019501;28;8981;-82
2022/03/28 10:26:09;;;;;;;;;51.50;43.00;;;;;;;;5021314;28;8892;-82
2022/03/28 10:28:37;;;;;;;;;772.33;691.00;;;;;;;;5019343;28;8910;-78
2022/03/28 10:31:16;;;;;;;;;739.00;665.83;;;;;;;;5015812;28;8819;-78
2022/03/28 10:33:48;;;;;;;;;55.50;45.25;;;;;;;;5017465;28;8873;-80
2022/03/28 10:36:30;;;;;;;;;524.25;489.75;;;;;;;;5006015;28;9547;-80
2022/03/28 10:39:32;;;;;;;;;203.75;197.75;;;;;;;;5015114;28;8886;-79
2022/03/28 10:42:07;;;;;;;;;93.25;86.50;;;;;;;;5018452;28;9910;-77
2022/03/28 10:44:49;;;;;;;;;37.75;34.25;;;;;;;;5022305;28;12290;-78
2022/03/28 10:47:16;;;;;;;;;43.75;37.75;;;;;;;;5021813;28;8886;-83
2022/03/28 10:49:44;;;;;;;;;47.00;37.50;;;;;;;;5022860;28;8896;-83
2022/03/28 10:52:21;;;;;;;;;45.00;34.75;;;;;;;;5009994;28;8893;-83
2022/03/28 10:54:53;;;;;;;;;37.40;33.60;;;;;;;;5021812;28;8858;-81
2022/03/28 10:57:28;;;;;;;;;44.75;37.75;;;;;;;;5014681;28;8878;-83
2022/03/28 11:00:08;;;;;;;;;43.40;34.00;;;;;;;;5003027;28;8895;-82
2022/03/28 11:02:36;;;;;;;;;39.40;32.80;;;;;;;;5021919;28;8932;-83
2022/03/28 11:05:09;;;;;;;;;44.75;36.25;;;;;;;;5023041;28;8898;-83
2022/03/28 11:07:37;;;;;;;;;31.40;29.80;;;;;;;;5001982;28;9655;-84
2022/03/28 11:10:08;;;;;;;;;36.00;31.80;;;;;;;;5020030;28;8878;-84
2022/03/28 11:12:39;;;;;;;;;35.20;31.80;;;;;;;;5021715;28;8971;-84
2022/03/28 11:15:16;;;;;;;;;39.40;30.80;;;;;;;;5021058;28;8839;-84
2022/03/28 11:17:56;;;;;;;;;35.80;31.60;;;;;;;;5018844;28;9791;-79
2022/03/28 11:20:24;;;;;;;;;33.20;31.60;;;;;;;;5022468;28;9705;-83
2022/03/28 11:22:54;;;;;;;;;36.00;30.00;;;;;;;;5022608;28;9022;-81
2022/03/28 11:25:46;;;;;;;;;37.80;31.60;;;;;;;;5022303;28;8863;-84
2022/03/28 11:28:19;;;;;;;;;33.20;27.60;;;;;;;;5003945;28;8854;-81
2022/03/28 11:30:58;;;;;;;;;32.60;29.40;;;;;;;;5017132;28;8804;-79
2022/03/28 11:33:31;;;;;;;;;32.80;28.20;;;;;;;;5018914;28;8871;-78
2022/03/28 11:36:02;;;;;;;;;26.40;25.40;;;;;;;;5015341;28;8894;-81
2022/03/28 11:38:32;;;;;;;;;29.20;27.80;;;;;;;;5021195;28;8870;-81
2022/03/28 11:41:02;;;;;;;;;29.40;24.40;;;;;;;;5022365;28;8858;-82
2022/03/28 11:43:34;;;;;;;;;21.00;19.40;;;;;;;;5020737;28;9663;-83
2022/03/28 11:46:03;;;;;;;;;27.40;24.20;;;;;;;;5023250;28;8872;-83
2022/03/28 11:48:30;;;;;;;;;23.00;22.00;;;;;;;;5002607;28;8873;-83
2022/03/28 11:50:59;;;;;;;;;24.20;22.20;;;;;;;;5023809;28;8870;-83
2022/03/28 11:53:27;;;;;;;;;24.40;22.80;;;;;;;;5021910;28;8937;-82
2022/03/28 11:55:56;;;;;;;;;21.40;15.40;;;;;;;;5019984;28;9001;-81
2022/03/28 11:58:33;;;;;;;;;22.80;20.80;;;;;;;;5017549;28;8884;-82
2022/03/28 12:01:09;;;;;;;;;27.40;27.00;;;;;;;;5019040;28;8802;-84
2022/03/28 12:15:01;;;;;;;;;18.20;18.00;;;;;;;;5432063;22;8879;-84
2022/03/28 12:17:30;;;;;;;;;25.60;25.20;;;;;;;;5037951;28;8880;-84
2022/03/28 12:20:04;;;;;;;;;25.20;23.40;;;;;;;;5047965;28;8955;-84
2022/03/28 12:22:45;;;;;;;;;26.20;21.80;;;;;;;;5043160;28;8862;-84
2022/03/28 12:25:24;;;;;;;;;25.60;24.60;;;;;;;;5023597;28;8871;-84
2022/03/28 12:27:55;;;;;;;;;22.00;19.20;;;;;;;;5042857;28;8866;-84
2022/03/28 12:30:33;;;;;;;;;22.20;21.40;;;;;;;;5038664;28;8811;-84
2022/03/28 12:33:12;;;;;;;;;23.00;19.80;;;;;;;;5042456;28;8857;-82
2022/03/28 12:35:45;;;;;;;;;22.20;22.20;;;;;;;;5042250;28;8881;-83
2022/03/28 12:38:20;;;;;;;;;21.20;19.20;;;;;;;;5029957;28;8883;-84
2022/03/28 12:40:52;;;;;;;;;25.60;20.40;;;;;;;;5042835;28;9699;-83
2022/03/28 12:43:23;;;;;;;;;19.80;19.00;;;;;;;;5037149;28;8924;-83
2022/03/28 12:45:53;;;;;;;;;26.20;24.20;;;;;;;;5040763;28;8898;-83
2022/03/28 12:48:21;;;;;;;;;26.40;25.00;;;;;;;;5044845;28;8886;-82
2022/03/28 12:50:54;;;;;;;;;25.60;25.40;;;;;;;;5042736;28;9682;-83
2022/03/28 12:53:26;;;;;;;;;23.40;21.60;;;;;;;;5039104;28;8884;-83
2022/03/28 12:55:54;;;;;;;;;24.80;23.80;;;;;;;;5033281;28;8890;-84
2022/03/28 12:58:33;;;;;;;;;23.60;18.80;;;;;;;;5022631;28;8887;-84
2022/03/28 13:01:09;;;;;;;;;18.40;17.40;;;;;;;;5036419;28;8985;-82
2022/03/28 13:03:38;;;;;;;;;21.80;21.60;;;;;;;;5024622;28;8872;-83
2022/03/28 13:06:08;;;;;;;;;22.40;18.80;;;;;;;;5036338;28;8921;-83
2022/03/28 13:08:39;;;;;;;;;20.20;19.60;;;;;;;;5035676;28;8909;-82
2022/03/28 13:11:15;;;;;;;;;21.20;19.60;;;;;;;;5042128;28;8862;-83
2022/03/28 13:13:43;;;;;;;;;22.00;20.00;;;;;;;;5021694;28;8985;-83
2022/03/28 13:16:12;;;;;;;;;19.40;17.80;;;;;;;;5037386;28;8889;-84
2022/03/28 13:18:40;;;;;;;;;19.20;16.40;;;;;;;;5029497;28;8864;-83
2022/03/28 13:21:15;;;;;;;;;23.20;22.20;;;;;;;;5040073;28;9380;-83
2022/03/28 13:23:42;;;;;;;;;20.80;18.80;;;;;;;;5021982;28;8874;-82
2022/03/28 13:26:15;;;;;;;;;23.80;21.00;;;;;;;;5041198;28;8894;-82
2022/03/28 13:28:47;;;;;;;;;23.20;22.00;;;;;;;;5041831;28;8877;-83
2022/03/28 13:31:19;;;;;;;;;20.20;20.20;;;;;;;;5034466;28;8824;-83
2022/03/28 13:33:46;;;;;;;;;21.00;19.20;;;;;;;;5048000;28;8885;-82
2022/03/28 13:36:15;;;;;;;;;24.80;23.80;;;;;;;;5045198;28;8901;-82
2022/03/28 13:38:46;;;;;;;;;21.00;19.60;;;;;;;;5042899;28;8907;-83
2022/03/28 13:41:14;;;;;;;;;23.40;21.00;;;;;;;;5031481;28;9013;-81
2022/03/28 13:43:41;;;;;;;;;24.20;22.20;;;;;;;;5043042;28;8866;-82
2022/03/28 13:46:21;;;;;;;;;;;;;;;;;;;;;
2022/03/28 13:57:29;;;;;;;;;;;;;;;;;;;;;
2022/03/28 13:59:57;;;;;;;;;28.00;26.20;;;;;;;;5002411;23;8844;-82
2022/03/28 14:02:24;;;;;;;;;29.60;22.80;;;;;;;;5038582;28;8839;-83
2022/03/28 14:04:52;;;;;;;;;19.20;19.20;;;;;;;;5043029;28;8885;-83
2022/03/28 14:07:19;;;;;;;;;22.40;19.60;;;;;;;;5039998;28;8876;-83
2022/03/28 14:09:47;;;;;;;;;24.00;22.20;;;;;;;;5046764;28;8868;-84
2022/03/28 14:12:14;;;;;;;;;20.20;20.20;;;;;;;;5014211;28;8862;-83
2022/03/28 14:14:44;;;;;;;;;20.80;18.40;;;;;;;;5020082;28;8871;-84
2022/03/28 14:17:11;;;;;;;;;21.20;20.80;;;;;;;;5022391;28;8856;-84
2022/03/28 14:19:39;;;;;;;;;17.60;15.60;;;;;;;;5038605;28;8874;-84
2022/03/28 14:22:08;;;;;;;;;23.00;21.80;;;;;;;;5023333;28;8860;-84
2022/03/28 14:24:36;;;;;;;;;24.80;22.60;;;;;;;;5034250;28;8890;-84
2022/03/28 14:27:04;;;;;;;;;17.20;17.00;;;;;;;;5046179;28;8856;-84
2022/03/28 14:29:32;;;;;;;;;18.40;17.80;;;;;;;;5029036;28;8887;-84
2022/03/28 14:32:00;;;;;;;;;24.40;21.00;;;;;;;;5032516;28;8852;-83
2022/03/28 14:34:28;;;;;;;;;21.00;19.20;;;;;;;;5048678;28;8884;-83
2022/03/28 14:36:55;;;;;;;;;21.80;21.00;;;;;;;;5009979;28;8890;-83
2022/03/28 14:39:22;;;;;;;;;23.80;19.60;;;;;;;;5039948;28;8860;-83
2022/03/28 14:41:50;;;;;;;;;15.80;15.80;;;;;;;;5015780;28;8866;-80
2022/03/28 14:44:17;;;;;;;;;21.40;21.40;;;;;;;;5035584;28;8871;-80
2022/03/28 14:47:03;;;;;;;;;22.00;21.00;;;;;;;;5034249;28;8882;-80
2022/03/28 14:49:32;;;;;;;;;24.60;23.20;;;;;;;;5037744;28;8896;-80
2022/03/28 14:51:59;;;;;;;;;21.00;19.40;;;;;;;;5032083;28;8848;-80
2022/03/28 14:54:27;;;;;;;;;20.60;19.80;;;;;;;;5038252;28;8879;-80
2022/03/28 14:56:54;;;;;;;;;25.20;21.60;;;;;;;;5042208;28;9671;-80